sensor_id;sensor_type;location;lat;lon;timestamp;P1;durP1;ratioP1;P2;durP2;ratioP2
15114;SDS011;7658;51.456;7.622;2023-04-24T00:00:04;2.47;;;2.27;;
15114;SDS011;7658;51.456;7.622;2023-04-24T00:02:31;2.60;;;2.50;;
15114;SDS011;7658;51.456;7.622;2023-04-24T00:04:58;2.90;;;2.70;;
15114;SDS011;7658;51.456;7.622;2023-04-24T00:07:27;2.67;;;2.47;;
15114;SDS011;7658;51.456;7.622;2023-04-24T00:09:53;2.40;;;2.30;;
15114;SDS011;7658;51.456;7.622;2023-04-24T00:12:19;2.73;;;2.60;;
15114;SDS011;7658;51.456;7.622;2023-04-24T00:14:45;2.70;;;2.60;;
15114;SDS011;7658;51.456;7.622;2023-04-24T00:17:11;2.63;;;2.43;;
15114;SDS011;7658;51.456;7.622;2023-04-24T00:19:37;2.30;;;2.20;;
15114;SDS011;7658;51.456;7.622;2023-04-24T00:22:02;2.70;;;2.60;;
15114;SDS011;7658;51.456;7.622;2023-04-24T00:24:28;2.70;;;2.60;;
15114;SDS011;7658;51.456;7.622;2023-04-24T00:26:54;3.17;;;2.50;;
15114;SDS011;7658;51.456;7.622;2023-04-24T00:29:20;4.73;;;2.47;;
15114;SDS011;7658;51.456;7.622;2023-04-24T00:31:45;2.50;;;2.40;;
15114;SDS011;7658;51.456;7.622;2023-04-24T00:34:11;2.60;;;2.50;;
15114;SDS011;7658;51.456;7.622;2023-04-24T00:36:37;3.00;;;2.80;;
15114;SDS011;7658;51.456;7.622;2023-04-24T00:39:03;2.70;;;2.50;;
15114;SDS011;7658;51.456;7.622;2023-04-24T00:41:29;3.10;;;2.80;;
15114;SDS011;7658;51.456;7.622;2023-04-24T00:43:55;3.07;;;2.87;;
15114;SDS011;7658;51.456;7.622;2023-04-24T00:46:21;3.00;;;2.80;;
15114;SDS011;7658;51.456;7.622;2023-04-24T00:48:47;3.03;;;2.90;;
15114;SDS011;7658;51.456;7.622;2023-04-24T00:51:13;2.90;;;2.70;;
15114;SDS011;7658;51.456;7.622;2023-04-24T00:53:38;2.90;;;2.70;;
15114;SDS011;7658;51.456;7.622;2023-04-24T00:56:04;2.97;;;2.60;;
15114;SDS011;7658;51.456;7.622;2023-04-24T00:58:30;2.77;;;2.50;;
15114;SDS011;7658;51.456;7.622;2023-04-24T01:00:57;4.30;;;2.70;;
15114;SDS011;7658;51.456;7.622;2023-04-24T01:03:24;2.90;;;2.70;;
15114;SDS011;7658;51.456;7.622;2023-04-24T01:05:54;3.03;;;2.83;;
15114;SDS011;7658;51.456;7.622;2023-04-24T01:08:20;3.97;;;2.63;;
15114;SDS011;7658;51.456;7.622;2023-04-24T01:10:54;2.60;;;2.47;;
15114;SDS011;7658;51.456;7.622;2023-04-24T01:13:21;3.00;;;2.80;;
15114;SDS011;7658;51.456;7.622;2023-04-24T01:15:48;2.93;;;2.70;;
15114;SDS011;7658;51.456;7.622;2023-04-24T01:18:13;2.90;;;2.70;;
15114;SDS011;7658;51.456;7.622;2023-04-24T01:20:40;3.03;;;2.83;;
15114;SDS011;7658;51.456;7.622;2023-04-24T01:23:07;3.00;;;2.80;;
15114;SDS011;7658;51.456;7.622;2023-04-24T01:25:34;3.10;;;2.60;;
15114;SDS011;7658;51.456;7.622;2023-04-24T01:28:00;2.70;;;2.50;;
15114;SDS011;7658;51.456;7.622;2023-04-24T01:30:26;2.97;;;2.67;;
15114;SDS011;7658;51.456;7.622;2023-04-24T01:32:53;2.77;;;2.60;;
15114;SDS011;7658;51.456;7.622;2023-04-24T01:35:19;3.07;;;2.80;;
15114;SDS011;7658;51.456;7.622;2023-04-24T01:37:45;3.00;;;2.80;;
15114;SDS011;7658;51.456;7.622;2023-04-24T01:40:11;3.03;;;2.83;;
15114;SDS011;7658;51.456;7.622;2023-04-24T01:42:37;3.00;;;2.70;;
15114;SDS011;7658;51.456;7.622;2023-04-24T01:45:03;3.10;;;2.90;;
15114;SDS011;7658;51.456;7.622;2023-04-24T01:47:31;2.90;;;2.70;;
15114;SDS011;7658;51.456;7.622;2023-04-24T01:49:57;4.13;;;2.87;;
15114;SDS011;7658;51.456;7.622;2023-04-24T01:52:23;2.97;;;2.73;;
15114;SDS011;7658;51.456;7.622;2023-04-24T01:54:49;3.10;;;2.60;;
15114;SDS011;7658;51.456;7.622;2023-04-24T01:57:15;2.80;;;2.60;;
15114;SDS011;7658;51.456;7.622;2023-04-24T01:59:41;3.13;;;2.87;;
15114;SDS011;7658;51.456;7.622;2023-04-24T02:02:07;2.70;;;2.50;;
15114;SDS011;7658;51.456;7.622;2023-04-24T02:04:33;3.13;;;2.83;;
15114;SDS011;7658;51.456;7.622;2023-04-24T02:06:59;3.10;;;2.90;;
15114;SDS011;7658;51.456;7.622;2023-04-24T02:09:25;3.00;;;2.80;;
15114;SDS011;7658;51.456;7.622;2023-04-24T02:11:50;3.20;;;2.90;;
15114;SDS011;7658;51.456;7.622;2023-04-24T02:14:16;2.80;;;2.60;;
15114;SDS011;7658;51.456;7.622;2023-04-24T02:16:42;3.10;;;2.90;;
15114;SDS011;7658;51.456;7.622;2023-04-24T02:19:08;3.33;;;3.13;;
15114;SDS011;7658;51.456;7.622;2023-04-24T02:21:35;3.20;;;2.93;;
15114;SDS011;7658;51.456;7.622;2023-04-24T02:24:01;3.30;;;3.00;;
15114;SDS011;7658;51.456;7.622;2023-04-24T02:26:27;3.30;;;3.07;;
15114;SDS011;7658;51.456;7.622;2023-04-24T02:28:53;4.63;;;3.73;;
15114;SDS011;7658;51.456;7.622;2023-04-24T02:31:18;5.87;;;3.90;;
15114;SDS011;7658;51.456;7.622;2023-04-24T02:33:44;4.80;;;4.10;;
15114;SDS011;7658;51.456;7.622;2023-04-24T02:36:10;4.17;;;3.77;;
15114;SDS011;7658;51.456;7.622;2023-04-24T02:38:36;5.60;;;4.20;;
15114;SDS011;7658;51.456;7.622;2023-04-24T02:41:02;4.30;;;3.90;;
15114;SDS011;7658;51.456;7.622;2023-04-24T02:43:31;4.93;;;4.53;;
15114;SDS011;7658;51.456;7.622;2023-04-24T02:45:57;4.67;;;4.27;;
15114;SDS011;7658;51.456;7.622;2023-04-24T02:48:23;5.50;;;4.10;;
15114;SDS011;7658;51.456;7.622;2023-04-24T02:50:49;4.60;;;4.07;;
15114;SDS011;7658;51.456;7.622;2023-04-24T02:53:15;4.80;;;4.20;;
15114;SDS011;7658;51.456;7.622;2023-04-24T02:55:41;7.60;;;4.30;;
15114;SDS011;7658;51.456;7.622;2023-04-24T02:58:07;5.77;;;4.40;;
15114;SDS011;7658;51.456;7.622;2023-04-24T03:00:33;5.00;;;4.50;;
15114;SDS011;7658;51.456;7.622;2023-04-24T03:02:59;6.57;;;4.03;;
15114;SDS011;7658;51.456;7.622;2023-04-24T03:05:24;4.60;;;4.10;;
15114;SDS011;7658;51.456;7.622;2023-04-24T03:07:50;6.17;;;4.50;;
15114;SDS011;7658;51.456;7.622;2023-04-24T03:10:17;6.63;;;4.87;;
15114;SDS011;7658;51.456;7.622;2023-04-24T03:12:43;7.37;;;5.07;;
15114;SDS011;7658;51.456;7.622;2023-04-24T03:15:09;7.13;;;6.43;;
15114;SDS011;7658;51.456;7.622;2023-04-24T03:17:35;9.50;;;6.73;;
15114;SDS011;7658;51.456;7.622;2023-04-24T03:20:02;7.80;;;6.80;;
15114;SDS011;7658;51.456;7.622;2023-04-24T03:22:30;13.83;;;9.70;;
15114;SDS011;7658;51.456;7.622;2023-04-24T03:24:57;13.03;;;10.60;;
15114;SDS011;7658;51.456;7.622;2023-04-24T03:27:23;11.93;;;9.47;;
15114;SDS011;7658;51.456;7.622;2023-04-24T03:29:49;15.13;;;10.77;;
15114;SDS011;7658;51.456;7.622;2023-04-24T03:32:19;13.60;;;12.00;;
15114;SDS011;7658;51.456;7.622;2023-04-24T03:34:45;15.63;;;11.83;;
15114;SDS011;7658;51.456;7.622;2023-04-24T03:37:10;15.33;;;12.67;;
15114;SDS011;7658;51.456;7.622;2023-04-24T03:39:36;16.43;;;12.43;;
15114;SDS011;7658;51.456;7.622;2023-04-24T03:42:02;15.03;;;12.20;;
15114;SDS011;7658;51.456;7.622;2023-04-24T03:44:28;14.57;;;11.47;;
15114;SDS011;7658;51.456;7.622;2023-04-24T03:46:53;15.70;;;11.60;;
15114;SDS011;7658;51.456;7.622;2023-04-24T03:49:19;15.73;;;10.77;;
15114;SDS011;7658;51.456;7.622;2023-04-24T03:51:45;17.10;;;11.50;;
15114;SDS011;7658;51.456;7.622;2023-04-24T03:54:11;17.03;;;11.50;;
15114;SDS011;7658;51.456;7.622;2023-04-24T03:56:37;16.07;;;12.23;;
15114;SDS011;7658;51.456;7.622;2023-04-24T03:59:02;15.90;;;11.70;;
15114;SDS011;7658;51.456;7.622;2023-04-24T04:01:28;16.90;;;11.90;;
15114;SDS011;7658;51.456;7.622;2023-04-24T04:03:54;16.90;;;12.60;;
15114;SDS011;7658;51.456;7.622;2023-04-24T04:06:19;20.77;;;13.30;;
15114;SDS011;7658;51.456;7.622;2023-04-24T04:08:46;13.93;;;12.13;;
15114;SDS011;7658;51.456;7.622;2023-04-24T04:11:12;17.87;;;12.57;;
15114;SDS011;7658;51.456;7.622;2023-04-24T04:13:38;17.50;;;12.63;;
15114;SDS011;7658;51.456;7.622;2023-04-24T04:16:03;15.17;;;11.57;;
15114;SDS011;7658;51.456;7.622;2023-04-24T04:18:29;15.27;;;12.00;;
15114;SDS011;7658;51.456;7.622;2023-04-24T04:20:55;17.73;;;11.73;;
15114;SDS011;7658;51.456;7.622;2023-04-24T04:23:22;15.50;;;12.37;;
15114;SDS011;7658;51.456;7.622;2023-04-24T04:25:48;19.27;;;12.03;;
15114;SDS011;7658;51.456;7.622;2023-04-24T04:28:14;14.60;;;10.40;;
15114;SDS011;7658;51.456;7.622;2023-04-24T04:30:40;18.87;;;11.60;;
15114;SDS011;7658;51.456;7.622;2023-04-24T04:33:07;17.77;;;11.93;;
15114;SDS011;7658;51.456;7.622;2023-04-24T04:35:33;16.10;;;11.07;;
15114;SDS011;7658;51.456;7.622;2023-04-24T04:37:59;14.07;;;10.73;;
15114;SDS011;7658;51.456;7.622;2023-04-24T04:40:25;15.23;;;12.23;;
15114;SDS011;7658;51.456;7.622;2023-04-24T04:42:53;18.60;;;12.43;;
15114;SDS011;7658;51.456;7.622;2023-04-24T04:45:19;17.30;;;12.10;;
15114;SDS011;7658;51.456;7.622;2023-04-24T04:47:45;18.33;;;12.73;;
15114;SDS011;7658;51.456;7.622;2023-04-24T04:50:12;16.40;;;11.77;;
15114;SDS011;7658;51.456;7.622;2023-04-24T04:52:37;15.07;;;11.57;;
15114;SDS011;7658;51.456;7.622;2023-04-24T04:55:03;18.67;;;12.40;;
15114;SDS011;7658;51.456;7.622;2023-04-24T04:57:30;15.67;;;11.17;;
15114;SDS011;7658;51.456;7.622;2023-04-24T04:59:56;16.20;;;11.67;;
15114;SDS011;7658;51.456;7.622;2023-04-24T05:02:21;15.03;;;11.23;;
15114;SDS011;7658;51.456;7.622;2023-04-24T05:04:47;15.50;;;11.93;;
15114;SDS011;7658;51.456;7.622;2023-04-24T05:07:13;15.47;;;12.57;;
15114;SDS011;7658;51.456;7.622;2023-04-24T05:09:39;20.03;;;12.93;;
15114;SDS011;7658;51.456;7.622;2023-04-24T05:12:04;16.43;;;12.97;;
15114;SDS011;7658;51.456;7.622;2023-04-24T05:14:30;17.17;;;13.20;;
15114;SDS011;7658;51.456;7.622;2023-04-24T05:16:56;18.43;;;13.13;;
15114;SDS011;7658;51.456;7.622;2023-04-24T05:19:21;17.93;;;13.93;;
15114;SDS011;7658;51.456;7.622;2023-04-24T05:21:47;25.00;;;14.00;;
15114;SDS011;7658;51.456;7.622;2023-04-24T05:24:13;18.00;;;13.23;;
15114;SDS011;7658;51.456;7.622;2023-04-24T05:26:39;17.23;;;12.93;;
15114;SDS011;7658;51.456;7.622;2023-04-24T05:29:04;15.87;;;12.50;;
15114;SDS011;7658;51.456;7.622;2023-04-24T05:31:30;18.53;;;12.53;;
15114;SDS011;7658;51.456;7.622;2023-04-24T05:33:56;15.83;;;11.20;;
15114;SDS011;7658;51.456;7.622;2023-04-24T05:36:22;14.70;;;11.20;;
15114;SDS011;7658;51.456;7.622;2023-04-24T05:38:47;13.77;;;10.83;;
15114;SDS011;7658;51.456;7.622;2023-04-24T05:41:13;16.87;;;10.40;;
15114;SDS011;7658;51.456;7.622;2023-04-24T05:43:40;15.10;;;10.27;;
15114;SDS011;7658;51.456;7.622;2023-04-24T05:46:05;15.83;;;11.17;;
15114;SDS011;7658;51.456;7.622;2023-04-24T05:48:31;15.17;;;10.87;;
15114;SDS011;7658;51.456;7.622;2023-04-24T05:50:57;14.67;;;10.43;;
15114;SDS011;7658;51.456;7.622;2023-04-24T05:53:22;12.30;;;9.73;;
15114;SDS011;7658;51.456;7.622;2023-04-24T05:55:48;11.83;;;9.97;;
15114;SDS011;7658;51.456;7.622;2023-04-24T05:58:14;14.00;;;9.97;;
15114;SDS011;7658;51.456;7.622;2023-04-24T06:00:40;14.20;;;9.83;;
15114;SDS011;7658;51.456;7.622;2023-04-24T06:03:07;10.07;;;8.67;;
15114;SDS011;7658;51.456;7.622;2023-04-24T06:05:33;9.60;;;8.50;;
15114;SDS011;7658;51.456;7.622;2023-04-24T06:08:00;10.27;;;8.90;;
15114;SDS011;7658;51.456;7.622;2023-04-24T06:10:25;15.13;;;9.57;;
15114;SDS011;7658;51.456;7.622;2023-04-24T06:12:52;11.60;;;8.67;;
15114;SDS011;7658;51.456;7.622;2023-04-24T06:15:21;12.13;;;10.00;;
15114;SDS011;7658;51.456;7.622;2023-04-24T06:17:47;14.93;;;9.13;;
15114;SDS011;7658;51.456;7.622;2023-04-24T06:20:12;13.03;;;9.50;;
15114;SDS011;7658;51.456;7.622;2023-04-24T06:22:38;10.37;;;9.17;;
15114;SDS011;7658;51.456;7.622;2023-04-24T06:25:05;12.30;;;9.37;;
15114;SDS011;7658;51.456;7.622;2023-04-24T06:27:32;14.70;;;9.50;;
15114;SDS011;7658;51.456;7.622;2023-04-24T06:29:58;12.23;;;9.63;;
15114;SDS011;7658;51.456;7.622;2023-04-24T06:32:24;11.57;;;9.30;;
15114;SDS011;7658;51.456;7.622;2023-04-24T06:34:53;10.83;;;9.70;;
15114;SDS011;7658;51.456;7.622;2023-04-24T06:37:22;12.50;;;8.77;;
15114;SDS011;7658;51.456;7.622;2023-04-24T06:39:48;13.17;;;9.43;;
15114;SDS011;7658;51.456;7.622;2023-04-24T06:42:13;11.03;;;7.90;;
15114;SDS011;7658;51.456;7.622;2023-04-24T06:44:39;11.80;;;7.87;;
15114;SDS011;7658;51.456;7.622;2023-04-24T06:47:08;9.03;;;7.97;;
15114;SDS011;7658;51.456;7.622;2023-04-24T06:49:38;9.57;;;7.37;;
15114;SDS011;7658;51.456;7.622;2023-04-24T06:52:04;11.10;;;7.03;;
15114;SDS011;7658;51.456;7.622;2023-04-24T06:54:30;7.40;;;6.70;;
15114;SDS011;7658;51.456;7.622;2023-04-24T06:56:57;10.17;;;7.20;;
15114;SDS011;7658;51.456;7.622;2023-04-24T06:59:23;7.30;;;6.40;;
15114;SDS011;7658;51.456;7.622;2023-04-24T07:01:49;11.83;;;6.57;;
15114;SDS011;7658;51.456;7.622;2023-04-24T07:04:18;6.13;;;5.53;;
15114;SDS011;7658;51.456;7.622;2023-04-24T07:06:45;8.43;;;6.57;;
15114;SDS011;7658;51.456;7.622;2023-04-24T07:09:14;6.83;;;6.00;;
15114;SDS011;7658;51.456;7.622;2023-04-24T07:11:49;8.30;;;6.73;;
15114;SDS011;7658;51.456;7.622;2023-04-24T07:14:16;11.40;;;6.03;;
15114;SDS011;7658;51.456;7.622;2023-04-24T07:16:42;8.27;;;7.47;;
15114;SDS011;7658;51.456;7.622;2023-04-24T07:19:08;11.13;;;7.43;;
15114;SDS011;7658;51.456;7.622;2023-04-24T07:21:34;9.40;;;7.73;;
15114;SDS011;7658;51.456;7.622;2023-04-24T07:24:00;8.80;;;7.87;;
15114;SDS011;7658;51.456;7.622;2023-04-24T07:26:27;9.97;;;7.90;;
15114;SDS011;7658;51.456;7.622;2023-04-24T07:28:54;8.53;;;7.73;;
15114;SDS011;7658;51.456;7.622;2023-04-24T07:31:20;9.63;;;7.33;;
15114;SDS011;7658;51.456;7.622;2023-04-24T07:33:46;8.73;;;7.83;;
15114;SDS011;7658;51.456;7.622;2023-04-24T07:36:12;9.33;;;8.20;;
15114;SDS011;7658;51.456;7.622;2023-04-24T07:38:42;9.93;;;8.80;;
15114;SDS011;7658;51.456;7.622;2023-04-24T07:41:08;8.83;;;7.93;;
15114;SDS011;7658;51.456;7.622;2023-04-24T07:43:34;9.17;;;8.00;;
15114;SDS011;7658;51.456;7.622;2023-04-24T07:46:00;8.37;;;6.97;;
15114;SDS011;7658;51.456;7.622;2023-04-24T07:48:26;9.20;;;7.33;;
15114;SDS011;7658;51.456;7.622;2023-04-24T07:50:52;8.30;;;6.50;;
15114;SDS011;7658;51.456;7.622;2023-04-24T07:53:18;6.27;;;5.63;;
15114;SDS011;7658;51.456;7.622;2023-04-24T07:55:44;7.13;;;6.43;;
15114;SDS011;7658;51.456;7.622;2023-04-24T07:58:10;6.80;;;6.10;;
15114;SDS011;7658;51.456;7.622;2023-04-24T08:00:36;5.43;;;5.03;;
15114;SDS011;7658;51.456;7.622;2023-04-24T08:03:02;5.27;;;4.87;;
15114;SDS011;7658;51.456;7.622;2023-04-24T08:05:28;6.57;;;5.17;;
15114;SDS011;7658;51.456;7.622;2023-04-24T08:07:54;5.73;;;5.10;;
15114;SDS011;7658;51.456;7.622;2023-04-24T08:10:20;6.03;;;5.43;;
15114;SDS011;7658;51.456;7.622;2023-04-24T08:12:47;5.20;;;4.70;;
15114;SDS011;7658;51.456;7.622;2023-04-24T08:15:13;5.00;;;4.47;;
15114;SDS011;7658;51.456;7.622;2023-04-24T08:17:38;4.47;;;4.17;;
15114;SDS011;7658;51.456;7.622;2023-04-24T08:20:05;4.10;;;3.80;;
15114;SDS011;7658;51.456;7.622;2023-04-24T08:22:35;3.63;;;3.30;;
15114;SDS011;7658;51.456;7.622;2023-04-24T08:25:01;5.27;;;3.60;;
15114;SDS011;7658;51.456;7.622;2023-04-24T08:27:27;4.77;;;3.80;;
15114;SDS011;7658;51.456;7.622;2023-04-24T08:29:53;3.47;;;3.27;;
15114;SDS011;7658;51.456;7.622;2023-04-24T08:32:19;3.40;;;3.20;;
15114;SDS011;7658;51.456;7.622;2023-04-24T08:34:45;5.10;;;3.33;;
15114;SDS011;7658;51.456;7.622;2023-04-24T08:37:11;3.40;;;3.20;;
15114;SDS011;7658;51.456;7.622;2023-04-24T08:39:37;3.40;;;3.20;;
15114;SDS011;7658;51.456;7.622;2023-04-24T08:42:04;3.53;;;3.30;;
15114;SDS011;7658;51.456;7.622;2023-04-24T08:44:33;3.20;;;3.00;;
15114;SDS011;7658;51.456;7.622;2023-04-24T08:47:00;2.90;;;2.80;;
15114;SDS011;7658;51.456;7.622;2023-04-24T08:49:28;3.40;;;3.20;;
15114;SDS011;7658;51.456;7.622;2023-04-24T08:51:54;5.07;;;3.10;;
15114;SDS011;7658;51.456;7.622;2023-04-24T08:54:20;3.40;;;3.17;;
15114;SDS011;7658;51.456;7.622;2023-04-24T08:56:47;3.50;;;3.30;;
15114;SDS011;7658;51.456;7.622;2023-04-24T08:59:14;3.20;;;3.00;;
15114;SDS011;7658;51.456;7.622;2023-04-24T09:01:40;3.30;;;3.00;;
15114;SDS011;7658;51.456;7.622;2023-04-24T09:04:07;3.00;;;2.90;;
15114;SDS011;7658;51.456;7.622;2023-04-24T09:06:38;3.23;;;3.03;;
15114;SDS011;7658;51.456;7.622;2023-04-24T09:09:04;2.80;;;2.70;;
15114;SDS011;7658;51.456;7.622;2023-04-24T09:11:31;3.37;;;3.17;;
15114;SDS011;7658;51.456;7.622;2023-04-24T09:14:00;3.20;;;3.00;;
15114;SDS011;7658;51.456;7.622;2023-04-24T09:16:26;3.50;;;3.13;;
15114;SDS011;7658;51.456;7.622;2023-04-24T09:18:52;3.63;;;3.37;;
15114;SDS011;7658;51.456;7.622;2023-04-24T09:21:20;3.30;;;3.10;;
15114;SDS011;7658;51.456;7.622;2023-04-24T09:23:46;3.10;;;3.00;;
15114;SDS011;7658;51.456;7.622;2023-04-24T09:26:12;3.20;;;3.00;;
15114;SDS011;7658;51.456;7.622;2023-04-24T09:28:40;3.20;;;3.00;;
15114;SDS011;7658;51.456;7.622;2023-04-24T09:31:13;3.03;;;2.83;;
15114;SDS011;7658;51.456;7.622;2023-04-24T09:33:59;3.30;;;3.00;;
15114;SDS011;7658;51.456;7.622;2023-04-24T09:36:32;3.80;;;3.60;;
15114;SDS011;7658;51.456;7.622;2023-04-24T09:38:59;3.40;;;3.17;;
15114;SDS011;7658;51.456;7.622;2023-04-24T09:41:26;5.67;;;3.60;;
15114;SDS011;7658;51.456;7.622;2023-04-24T09:43:56;3.73;;;3.53;;
15114;SDS011;7658;51.456;7.622;2023-04-24T09:46:29;4.40;;;4.00;;
15114;SDS011;7658;51.456;7.622;2023-04-24T09:48:56;5.30;;;4.80;;
15114;SDS011;7658;51.456;7.622;2023-04-24T09:51:34;6.40;;;5.33;;
15114;SDS011;7658;51.456;7.622;2023-04-24T09:54:02;7.43;;;6.57;;
15114;SDS011;7658;51.456;7.622;2023-04-24T09:56:50;10.27;;;9.10;;
15114;SDS011;7658;51.456;7.622;2023-04-24T09:59:19;11.63;;;9.37;;
15114;SDS011;7658;51.456;7.622;2023-04-24T10:01:45;9.83;;;8.53;;
15114;SDS011;7658;51.456;7.622;2023-04-24T10:06:47;11.80;;;9.07;;
15114;SDS011;7658;51.456;7.622;2023-04-24T10:09:20;11.00;;;9.57;;
15114;SDS011;7658;51.456;7.622;2023-04-24T10:11:52;10.00;;;9.00;;
15114;SDS011;7658;51.456;7.622;2023-04-24T10:14:20;9.77;;;8.60;;
15114;SDS011;7658;51.456;7.622;2023-04-24T10:16:47;10.73;;;8.57;;
15114;SDS011;7658;51.456;7.622;2023-04-24T10:19:15;11.87;;;9.23;;
15114;SDS011;7658;51.456;7.622;2023-04-24T10:21:47;9.50;;;8.13;;
15114;SDS011;7658;51.456;7.622;2023-04-24T10:24:15;7.67;;;6.57;;
15114;SDS011;7658;51.456;7.622;2023-04-24T10:26:42;5.60;;;5.10;;
15114;SDS011;7658;51.456;7.622;2023-04-24T10:29:10;5.30;;;4.80;;
15114;SDS011;7658;51.456;7.622;2023-04-24T10:31:37;5.37;;;4.47;;
15114;SDS011;7658;51.456;7.622;2023-04-24T10:34:07;5.40;;;4.90;;
15114;SDS011;7658;51.456;7.622;2023-04-24T10:36:35;5.93;;;5.30;;
15114;SDS011;7658;51.456;7.622;2023-04-24T10:39:06;7.47;;;5.17;;
15114;SDS011;7658;51.456;7.622;2023-04-24T10:41:39;5.73;;;5.13;;
15114;SDS011;7658;51.456;7.622;2023-04-24T10:44:12;5.13;;;4.57;;
15114;SDS011;7658;51.456;7.622;2023-04-24T10:46:42;7.87;;;5.10;;
15114;SDS011;7658;51.456;7.622;2023-04-24T10:49:09;6.27;;;5.33;;
15114;SDS011;7658;51.456;7.622;2023-04-24T10:54:22;7.03;;;6.03;;
15114;SDS011;7658;51.456;7.622;2023-04-24T10:59:43;8.90;;;6.33;;
15114;SDS011;7658;51.456;7.622;2023-04-24T11:02:09;7.83;;;6.57;;
15114;SDS011;7658;51.456;7.622;2023-04-24T11:04:35;6.70;;;6.00;;
15114;SDS011;7658;51.456;7.622;2023-04-24T11:07:02;8.47;;;6.03;;
15114;SDS011;7658;51.456;7.622;2023-04-24T11:09:30;7.43;;;6.13;;
15114;SDS011;7658;51.456;7.622;2023-04-24T11:12:03;8.27;;;6.37;;
15114;SDS011;7658;51.456;7.622;2023-04-24T11:20:02;9.67;;;7.10;;
15114;SDS011;7658;51.456;7.622;2023-04-24T11:22:32;8.70;;;7.33;;
15114;SDS011;7658;51.456;7.622;2023-04-24T11:25:00;12.93;;;7.73;;
15114;SDS011;7658;51.456;7.622;2023-04-24T11:27:39;12.43;;;9.27;;
15114;SDS011;7658;51.456;7.622;2023-04-24T11:30:09;17.13;;;10.20;;
15114;SDS011;7658;51.456;7.622;2023-04-24T11:32:40;11.83;;;9.53;;
15114;SDS011;7658;51.456;7.622;2023-04-24T11:37:43;14.87;;;10.13;;
15114;SDS011;7658;51.456;7.622;2023-04-24T11:40:14;19.10;;;11.47;;
15114;SDS011;7658;51.456;7.622;2023-04-24T11:42:43;17.70;;;11.90;;
15114;SDS011;7658;51.456;7.622;2023-04-24T11:47:49;16.97;;;12.27;;
15114;SDS011;7658;51.456;7.622;2023-04-24T11:50:15;18.47;;;12.77;;
15114;SDS011;7658;51.456;7.622;2023-04-24T11:52:44;18.87;;;12.40;;
15114;SDS011;7658;51.456;7.622;2023-04-24T11:57:44;18.67;;;12.83;;
15114;SDS011;7658;51.456;7.622;2023-04-24T12:02:43;23.70;;;13.10;;
15114;SDS011;7658;51.456;7.622;2023-04-24T12:05:18;23.63;;;13.30;;
15114;SDS011;7658;51.456;7.622;2023-04-24T12:07:48;22.17;;;13.53;;
15114;SDS011;7658;51.456;7.622;2023-04-24T12:10:14;20.50;;;13.53;;
15114;SDS011;7658;51.456;7.622;2023-04-24T12:12:44;22.07;;;13.23;;
15114;SDS011;7658;51.456;7.622;2023-04-24T12:15:11;23.03;;;13.87;;
15114;SDS011;7658;51.456;7.622;2023-04-24T12:17:40;26.37;;;13.70;;
15114;SDS011;7658;51.456;7.622;2023-04-24T12:20:07;21.20;;;13.40;;
15114;SDS011;7658;51.456;7.622;2023-04-24T12:22:43;20.00;;;13.00;;
15114;SDS011;7658;51.456;7.622;2023-04-24T12:25:11;20.30;;;12.90;;
15114;SDS011;7658;51.456;7.622;2023-04-24T12:27:37;19.60;;;11.93;;
15114;SDS011;7658;51.456;7.622;2023-04-24T12:30:04;24.83;;;12.30;;
15114;SDS011;7658;51.456;7.622;2023-04-24T12:32:31;20.37;;;10.87;;
15114;SDS011;7658;51.456;7.622;2023-04-24T12:34:57;22.43;;;9.77;;
15114;SDS011;7658;51.456;7.622;2023-04-24T12:37:24;18.37;;;10.67;;
15114;SDS011;7658;51.456;7.622;2023-04-24T12:42:27;12.30;;;8.67;;
15114;SDS011;7658;51.456;7.622;2023-04-24T12:45:00;13.03;;;8.60;;
15114;SDS011;7658;51.456;7.622;2023-04-24T12:47:30;15.07;;;8.50;;
15114;SDS011;7658;51.456;7.622;2023-04-24T12:49:57;20.23;;;8.80;;
15114;SDS011;7658;51.456;7.622;2023-04-24T12:52:24;16.90;;;7.97;;
15114;SDS011;7658;51.456;7.622;2023-04-24T12:54:54;13.20;;;7.70;;
15114;SDS011;7658;51.456;7.622;2023-04-24T12:57:22;16.50;;;7.60;;
15114;SDS011;7658;51.456;7.622;2023-04-24T12:59:48;11.23;;;6.60;;
15114;SDS011;7658;51.456;7.622;2023-04-24T13:02:14;9.23;;;7.07;;
15114;SDS011;7658;51.456;7.622;2023-04-24T13:04:44;15.33;;;7.17;;
15114;SDS011;7658;51.456;7.622;2023-04-24T13:07:11;12.10;;;7.37;;
15114;SDS011;7658;51.456;7.622;2023-04-24T13:09:38;13.33;;;6.80;;
15114;SDS011;7658;51.456;7.622;2023-04-24T13:12:04;12.47;;;6.73;;
15114;SDS011;7658;51.456;7.622;2023-04-24T13:14:31;14.67;;;6.67;;
15114;SDS011;7658;51.456;7.622;2023-04-24T13:16:57;10.47;;;6.37;;
15114;SDS011;7658;51.456;7.622;2023-04-24T13:19:26;8.37;;;6.07;;
15114;SDS011;7658;51.456;7.622;2023-04-24T13:21:54;11.20;;;6.90;;
15114;SDS011;7658;51.456;7.622;2023-04-24T13:24:22;8.03;;;6.00;;
15114;SDS011;7658;51.456;7.622;2023-04-24T13:26:54;15.73;;;7.13;;
15114;SDS011;7658;51.456;7.622;2023-04-24T13:29:21;11.93;;;6.33;;
15114;SDS011;7658;51.456;7.622;2023-04-24T13:31:49;11.57;;;6.47;;
15114;SDS011;7658;51.456;7.622;2023-04-24T13:34:17;9.30;;;6.30;;
15114;SDS011;7658;51.456;7.622;2023-04-24T13:36:43;10.27;;;6.20;;
15114;SDS011;7658;51.456;7.622;2023-04-24T13:39:09;8.00;;;6.27;;
15114;SDS011;7658;51.456;7.622;2023-04-24T13:41:35;8.50;;;5.90;;
15114;SDS011;7658;51.456;7.622;2023-04-24T13:44:02;8.37;;;5.60;;
15114;SDS011;7658;51.456;7.622;2023-04-24T13:46:28;6.37;;;5.37;;
15114;SDS011;7658;51.456;7.622;2023-04-24T13:48:55;7.60;;;5.73;;
15114;SDS011;7658;51.456;7.622;2023-04-24T13:51:21;9.97;;;5.20;;
15114;SDS011;7658;51.456;7.622;2023-04-24T13:53:48;8.70;;;5.60;;
15114;SDS011;7658;51.456;7.622;2023-04-24T13:56:13;7.67;;;5.30;;
15114;SDS011;7658;51.456;7.622;2023-04-24T13:58:39;7.73;;;5.83;;
15114;SDS011;7658;51.456;7.622;2023-04-24T14:01:05;10.03;;;5.07;;
15114;SDS011;7658;51.456;7.622;2023-04-24T14:03:32;6.70;;;5.30;;
15114;SDS011;7658;51.456;7.622;2023-04-24T14:05:59;5.60;;;4.83;;
15114;SDS011;7658;51.456;7.622;2023-04-24T14:08:24;8.40;;;5.00;;
15114;SDS011;7658;51.456;7.622;2023-04-24T14:10:50;6.50;;;4.50;;
15114;SDS011;7658;51.456;7.622;2023-04-24T14:13:16;6.23;;;5.57;;
15114;SDS011;7658;51.456;7.622;2023-04-24T14:15:42;5.80;;;4.87;;
15114;SDS011;7658;51.456;7.622;2023-04-24T14:18:08;5.80;;;5.00;;
15114;SDS011;7658;51.456;7.622;2023-04-24T14:20:34;7.87;;;4.80;;
15114;SDS011;7658;51.456;7.622;2023-04-24T14:23:00;6.13;;;4.50;;
15114;SDS011;7658;51.456;7.622;2023-04-24T14:25:26;11.23;;;5.07;;
15114;SDS011;7658;51.456;7.622;2023-04-24T14:27:52;7.33;;;5.33;;
15114;SDS011;7658;51.456;7.622;2023-04-24T14:30:18;6.87;;;4.93;;
15114;SDS011;7658;51.456;7.622;2023-04-24T14:32:44;7.93;;;5.27;;
15114;SDS011;7658;51.456;7.622;2023-04-24T14:35:10;7.20;;;4.30;;
15114;SDS011;7658;51.456;7.622;2023-04-24T14:37:36;5.87;;;4.80;;
15114;SDS011;7658;51.456;7.622;2023-04-24T14:40:02;5.80;;;4.77;;
15114;SDS011;7658;51.456;7.622;2023-04-24T14:42:30;6.73;;;4.33;;
15114;SDS011;7658;51.456;7.622;2023-04-24T14:44:56;7.10;;;4.20;;
15114;SDS011;7658;51.456;7.622;2023-04-24T14:47:21;4.83;;;4.10;;
15114;SDS011;7658;51.456;7.622;2023-04-24T14:49:48;7.60;;;4.90;;
15114;SDS011;7658;51.456;7.622;2023-04-24T14:52:13;7.90;;;4.20;;
15114;SDS011;7658;51.456;7.622;2023-04-24T14:54:40;9.57;;;4.30;;
15114;SDS011;7658;51.456;7.622;2023-04-24T14:57:08;5.43;;;3.90;;
15114;SDS011;7658;51.456;7.622;2023-04-24T14:59:34;5.33;;;4.30;;
15114;SDS011;7658;51.456;7.622;2023-04-24T15:02:00;5.30;;;4.07;;
15114;SDS011;7658;51.456;7.622;2023-04-24T15:04:27;7.43;;;4.30;;
15114;SDS011;7658;51.456;7.622;2023-04-24T15:06:53;4.63;;;3.80;;
15114;SDS011;7658;51.456;7.622;2023-04-24T15:09:20;6.23;;;3.83;;
15114;SDS011;7658;51.456;7.622;2023-04-24T15:11:47;7.23;;;4.23;;
15114;SDS011;7658;51.456;7.622;2023-04-24T15:14:14;7.77;;;5.13;;
15114;SDS011;7658;51.456;7.622;2023-04-24T15:16:40;5.00;;;4.50;;